Terminal Aerodrome Forecast
Issued by NWS Wilmington, OH

Current Version | Previous Version | Graphics & Text | Print | Product List | Glossary On
Versions: 1 2 3 4 5 6 7 8 9 10 11 12 13 14 15 16
000
FTUS41 KILN 170539
TAFDAY
TAF
KDAY 170539Z 1706/1806 20004KT P6SM SKC
     FM171100 20004KT P6SM FEW250
     FM171500 22010KT P6SM FEW250
     FM180000 19005KT P6SM SKC=

USA.gov is the U.S. government's official web portal to all federal, state and local government web resources and services.